sensor_id;sensor_type;location;lat;lon;timestamp;P1;durP1;ratioP1;P2;durP2;ratioP2
76900;SDS011;65859;43.020;25.096;2023-04-03T00:01:42;7.68;;;4.78;;
76900;SDS011;65859;43.020;25.096;2023-04-03T00:04:08;6.60;;;3.72;;
76900;SDS011;65859;43.020;25.096;2023-04-03T00:06:34;7.22;;;3.85;;
76900;SDS011;65859;43.020;25.096;2023-04-03T00:09:01;6.15;;;4.10;;
76900;SDS011;65859;43.020;25.096;2023-04-03T00:11:27;6.10;;;4.45;;
76900;SDS011;65859;43.020;25.096;2023-04-03T00:13:53;7.53;;;5.00;;
76900;SDS011;65859;43.020;25.096;2023-04-03T00:16:20;9.27;;;6.18;;
76900;SDS011;65859;43.020;25.096;2023-04-03T00:18:46;10.60;;;5.95;;
76900;SDS011;65859;43.020;25.096;2023-04-03T00:21:12;9.18;;;5.90;;
76900;SDS011;65859;43.020;25.096;2023-04-03T00:23:40;8.07;;;5.72;;
76900;SDS011;65859;43.020;25.096;2023-04-03T00:26:08;9.55;;;5.63;;
76900;SDS011;65859;43.020;25.096;2023-04-03T00:28:34;6.85;;;5.10;;
76900;SDS011;65859;43.020;25.096;2023-04-03T00:31:00;9.50;;;5.45;;
76900;SDS011;65859;43.020;25.096;2023-04-03T00:33:27;9.80;;;5.28;;
76900;SDS011;65859;43.020;25.096;2023-04-03T00:35:53;10.00;;;4.95;;
76900;SDS011;65859;43.020;25.096;2023-04-03T00:38:20;10.75;;;4.97;;
76900;SDS011;65859;43.020;25.096;2023-04-03T00:40:47;7.60;;;5.40;;
76900;SDS011;65859;43.020;25.096;2023-04-03T00:43:15;13.07;;;7.43;;
76900;SDS011;65859;43.020;25.096;2023-04-03T00:45:48;6.53;;;4.28;;
76900;SDS011;65859;43.020;25.096;2023-04-03T00:48:17;5.47;;;4.25;;
76900;SDS011;65859;43.020;25.096;2023-04-03T00:50:47;8.32;;;4.60;;
76900;SDS011;65859;43.020;25.096;2023-04-03T00:53:18;6.38;;;3.90;;
76900;SDS011;65859;43.020;25.096;2023-04-03T00:55:50;7.22;;;3.60;;
76900;SDS011;65859;43.020;25.096;2023-04-03T00:58:20;6.40;;;4.05;;
76900;SDS011;65859;43.020;25.096;2023-04-03T01:00:58;4.25;;;3.05;;
76900;SDS011;65859;43.020;25.096;2023-04-03T01:03:27;4.57;;;3.15;;
76900;SDS011;65859;43.020;25.096;2023-04-03T01:05:56;5.65;;;3.70;;
76900;SDS011;65859;43.020;25.096;2023-04-03T01:08:23;4.40;;;3.00;;
76900;SDS011;65859;43.020;25.096;2023-04-03T01:10:49;5.47;;;2.95;;
76900;SDS011;65859;43.020;25.096;2023-04-03T01:13:26;5.05;;;3.00;;
76900;SDS011;65859;43.020;25.096;2023-04-03T01:15:54;4.80;;;2.90;;
76900;SDS011;65859;43.020;25.096;2023-04-03T01:18:21;4.57;;;3.03;;
76900;SDS011;65859;43.020;25.096;2023-04-03T01:26:23;6.40;;;3.47;;
76900;SDS011;65859;43.020;25.096;2023-04-03T01:28:53;3.83;;;3.17;;
76900;SDS011;65859;43.020;25.096;2023-04-03T01:33:54;3.80;;;2.70;;
76900;SDS011;65859;43.020;25.096;2023-04-03T01:36:22;3.08;;;2.40;;
76900;SDS011;65859;43.020;25.096;2023-04-03T01:38:54;2.65;;;2.00;;
76900;SDS011;65859;43.020;25.096;2023-04-03T01:41:21;4.80;;;3.28;;
76900;SDS011;65859;43.020;25.096;2023-04-03T01:43:48;4.55;;;3.15;;
76900;SDS011;65859;43.020;25.096;2023-04-03T01:46:18;4.15;;;3.50;;
76900;SDS011;65859;43.020;25.096;2023-04-03T01:48:45;4.32;;;3.50;;
76900;SDS011;65859;43.020;25.096;2023-04-03T01:51:11;3.85;;;3.17;;
76900;SDS011;65859;43.020;25.096;2023-04-03T01:53:38;4.63;;;3.20;;
76900;SDS011;65859;43.020;25.096;2023-04-03T01:56:04;6.00;;;3.25;;
76900;SDS011;65859;43.020;25.096;2023-04-03T01:58:31;4.55;;;2.78;;
76900;SDS011;65859;43.020;25.096;2023-04-03T02:00:59;6.53;;;2.70;;
76900;SDS011;65859;43.020;25.096;2023-04-03T02:03:25;5.05;;;2.20;;
76900;SDS011;65859;43.020;25.096;2023-04-03T02:05:52;3.80;;;2.65;;
76900;SDS011;65859;43.020;25.096;2023-04-03T02:08:18;4.60;;;2.75;;
76900;SDS011;65859;43.020;25.096;2023-04-03T02:10:48;6.50;;;3.25;;
76900;SDS011;65859;43.020;25.096;2023-04-03T02:13:15;21.58;;;7.55;;
76900;SDS011;65859;43.020;25.096;2023-04-03T02:15:42;11.90;;;6.75;;
76900;SDS011;65859;43.020;25.096;2023-04-03T02:18:10;9.02;;;3.97;;
76900;SDS011;65859;43.020;25.096;2023-04-03T02:20:37;13.73;;;4.88;;
76900;SDS011;65859;43.020;25.096;2023-04-03T02:23:03;10.65;;;4.50;;
76900;SDS011;65859;43.020;25.096;2023-04-03T02:25:30;7.32;;;4.00;;
76900;SDS011;65859;43.020;25.096;2023-04-03T02:27:57;5.45;;;2.50;;
76900;SDS011;65859;43.020;25.096;2023-04-03T02:30:24;6.15;;;4.75;;
76900;SDS011;65859;43.020;25.096;2023-04-03T02:32:51;4.68;;;3.80;;
76900;SDS011;65859;43.020;25.096;2023-04-03T02:35:18;9.30;;;4.28;;
76900;SDS011;65859;43.020;25.096;2023-04-03T02:37:45;9.55;;;4.65;;
76900;SDS011;65859;43.020;25.096;2023-04-03T02:40:11;5.90;;;4.25;;
76900;SDS011;65859;43.020;25.096;2023-04-03T02:42:37;5.00;;;3.33;;
76900;SDS011;65859;43.020;25.096;2023-04-03T02:45:04;8.27;;;3.55;;
76900;SDS011;65859;43.020;25.096;2023-04-03T02:47:30;8.60;;;4.10;;
76900;SDS011;65859;43.020;25.096;2023-04-03T02:49:57;8.00;;;4.55;;
76900;SDS011;65859;43.020;25.096;2023-04-03T02:52:23;8.73;;;4.38;;
76900;SDS011;65859;43.020;25.096;2023-04-03T02:54:49;5.30;;;4.30;;
76900;SDS011;65859;43.020;25.096;2023-04-03T02:57:16;7.40;;;4.07;;
76900;SDS011;65859;43.020;25.096;2023-04-03T02:59:42;19.40;;;16.95;;
76900;SDS011;65859;43.020;25.096;2023-04-03T03:02:09;8.32;;;6.15;;
76900;SDS011;65859;43.020;25.096;2023-04-03T03:04:37;8.05;;;4.10;;
76900;SDS011;65859;43.020;25.096;2023-04-03T03:07:03;6.45;;;4.00;;
76900;SDS011;65859;43.020;25.096;2023-04-03T03:09:30;9.25;;;4.85;;
76900;SDS011;65859;43.020;25.096;2023-04-03T03:11:56;13.85;;;6.53;;
76900;SDS011;65859;43.020;25.096;2023-04-03T03:14:23;6.45;;;3.95;;
76900;SDS011;65859;43.020;25.096;2023-04-03T03:16:49;8.00;;;3.75;;
76900;SDS011;65859;43.020;25.096;2023-04-03T03:19:16;11.00;;;3.47;;
76900;SDS011;65859;43.020;25.096;2023-04-03T03:21:42;6.63;;;3.33;;
76900;SDS011;65859;43.020;25.096;2023-04-03T03:24:09;6.63;;;3.72;;
76900;SDS011;65859;43.020;25.096;2023-04-03T03:26:37;6.50;;;3.47;;
76900;SDS011;65859;43.020;25.096;2023-04-03T03:29:03;9.73;;;6.20;;
76900;SDS011;65859;43.020;25.096;2023-04-03T03:31:29;10.75;;;6.55;;
76900;SDS011;65859;43.020;25.096;2023-04-03T03:33:56;11.68;;;6.70;;
76900;SDS011;65859;43.020;25.096;2023-04-03T03:36:23;10.10;;;5.47;;
76900;SDS011;65859;43.020;25.096;2023-04-03T03:38:49;14.15;;;6.95;;
76900;SDS011;65859;43.020;25.096;2023-04-03T03:41:16;9.90;;;3.97;;
76900;SDS011;65859;43.020;25.096;2023-04-03T03:43:42;9.68;;;4.97;;
76900;SDS011;65859;43.020;25.096;2023-04-03T03:46:09;9.23;;;3.90;;
76900;SDS011;65859;43.020;25.096;2023-04-03T03:48:35;6.55;;;4.00;;
76900;SDS011;65859;43.020;25.096;2023-04-03T03:51:02;7.10;;;3.55;;
76900;SDS011;65859;43.020;25.096;2023-04-03T03:53:28;7.82;;;3.70;;
76900;SDS011;65859;43.020;25.096;2023-04-03T03:55:55;8.52;;;3.70;;
76900;SDS011;65859;43.020;25.096;2023-04-03T03:58:21;11.13;;;5.20;;
76900;SDS011;65859;43.020;25.096;2023-04-03T04:00:48;8.13;;;5.75;;
76900;SDS011;65859;43.020;25.096;2023-04-03T04:03:14;5.78;;;3.88;;
76900;SDS011;65859;43.020;25.096;2023-04-03T04:05:41;5.60;;;3.30;;
76900;SDS011;65859;43.020;25.096;2023-04-03T04:08:09;6.07;;;3.65;;
76900;SDS011;65859;43.020;25.096;2023-04-03T04:10:35;4.95;;;3.83;;
76900;SDS011;65859;43.020;25.096;2023-04-03T04:13:03;3.97;;;3.00;;
76900;SDS011;65859;43.020;25.096;2023-04-03T04:15:29;3.42;;;2.40;;
76900;SDS011;65859;43.020;25.096;2023-04-03T04:17:56;4.22;;;2.75;;
76900;SDS011;65859;43.020;25.096;2023-04-03T04:20:22;7.38;;;3.15;;
76900;SDS011;65859;43.020;25.096;2023-04-03T04:22:48;6.03;;;3.65;;
76900;SDS011;65859;43.020;25.096;2023-04-03T04:25:15;5.75;;;3.70;;
76900;SDS011;65859;43.020;25.096;2023-04-03T04:27:41;8.30;;;4.25;;
76900;SDS011;65859;43.020;25.096;2023-04-03T04:30:08;20.85;;;6.97;;
76900;SDS011;65859;43.020;25.096;2023-04-03T04:32:35;11.45;;;6.97;;
76900;SDS011;65859;43.020;25.096;2023-04-03T04:35:02;15.30;;;8.40;;
76900;SDS011;65859;43.020;25.096;2023-04-03T04:37:29;17.83;;;10.25;;
76900;SDS011;65859;43.020;25.096;2023-04-03T04:39:56;25.25;;;14.25;;
76900;SDS011;65859;43.020;25.096;2023-04-03T04:42:23;22.75;;;10.75;;
76900;SDS011;65859;43.020;25.096;2023-04-03T04:44:49;14.77;;;8.13;;
76900;SDS011;65859;43.020;25.096;2023-04-03T04:47:15;14.30;;;8.20;;
76900;SDS011;65859;43.020;25.096;2023-04-03T04:49:42;11.55;;;8.57;;
76900;SDS011;65859;43.020;25.096;2023-04-03T04:52:08;10.13;;;6.70;;
76900;SDS011;65859;43.020;25.096;2023-04-03T04:54:34;10.05;;;5.40;;
76900;SDS011;65859;43.020;25.096;2023-04-03T04:57:01;10.85;;;7.35;;
76900;SDS011;65859;43.020;25.096;2023-04-03T04:59:27;19.50;;;9.93;;
76900;SDS011;65859;43.020;25.096;2023-04-03T05:01:53;24.80;;;14.02;;
76900;SDS011;65859;43.020;25.096;2023-04-03T05:04:20;20.30;;;11.75;;
76900;SDS011;65859;43.020;25.096;2023-04-03T05:06:46;17.10;;;9.50;;
76900;SDS011;65859;43.020;25.096;2023-04-03T05:09:13;26.23;;;11.55;;
76900;SDS011;65859;43.020;25.096;2023-04-03T05:11:41;15.70;;;9.75;;
76900;SDS011;65859;43.020;25.096;2023-04-03T05:14:08;16.38;;;10.30;;
76900;SDS011;65859;43.020;25.096;2023-04-03T05:16:34;19.67;;;10.50;;
76900;SDS011;65859;43.020;25.096;2023-04-03T05:19:01;28.65;;;18.42;;
76900;SDS011;65859;43.020;25.096;2023-04-03T05:21:28;16.15;;;8.25;;
76900;SDS011;65859;43.020;25.096;2023-04-03T05:24:00;13.07;;;8.07;;
76900;SDS011;65859;43.020;25.096;2023-04-03T05:26:28;8.25;;;5.70;;
76900;SDS011;65859;43.020;25.096;2023-04-03T05:28:55;10.05;;;5.85;;
76900;SDS011;65859;43.020;25.096;2023-04-03T05:31:22;8.75;;;7.18;;
76900;SDS011;65859;43.020;25.096;2023-04-03T05:33:48;19.92;;;9.05;;
76900;SDS011;65859;43.020;25.096;2023-04-03T05:36:15;20.35;;;11.93;;
76900;SDS011;65859;43.020;25.096;2023-04-03T05:38:41;25.55;;;13.02;;
76900;SDS011;65859;43.020;25.096;2023-04-03T05:41:08;22.92;;;14.27;;
76900;SDS011;65859;43.020;25.096;2023-04-03T05:43:35;31.38;;;12.60;;
76900;SDS011;65859;43.020;25.096;2023-04-03T05:46:04;19.45;;;10.93;;
76900;SDS011;65859;43.020;25.096;2023-04-03T05:48:40;11.20;;;6.85;;
76900;SDS011;65859;43.020;25.096;2023-04-03T05:51:07;17.95;;;10.52;;
76900;SDS011;65859;43.020;25.096;2023-04-03T05:53:52;24.60;;;13.50;;
76900;SDS011;65859;43.020;25.096;2023-04-03T05:56:25;20.50;;;12.27;;
76900;SDS011;65859;43.020;25.096;2023-04-03T05:58:52;26.77;;;12.82;;
76900;SDS011;65859;43.020;25.096;2023-04-03T06:01:18;21.95;;;14.30;;
76900;SDS011;65859;43.020;25.096;2023-04-03T06:03:44;17.98;;;12.02;;
76900;SDS011;65859;43.020;25.096;2023-04-03T06:06:12;22.15;;;12.52;;
76900;SDS011;65859;43.020;25.096;2023-04-03T06:08:39;19.17;;;12.63;;
76900;SDS011;65859;43.020;25.096;2023-04-03T06:11:05;26.50;;;12.80;;
76900;SDS011;65859;43.020;25.096;2023-04-03T06:13:33;25.25;;;10.70;;
76900;SDS011;65859;43.020;25.096;2023-04-03T06:16:01;19.55;;;11.05;;
76900;SDS011;65859;43.020;25.096;2023-04-03T06:18:29;19.02;;;9.55;;
76900;SDS011;65859;43.020;25.096;2023-04-03T06:20:55;24.45;;;10.82;;
76900;SDS011;65859;43.020;25.096;2023-04-03T06:23:21;19.27;;;10.18;;
76900;SDS011;65859;43.020;25.096;2023-04-03T06:25:48;15.20;;;9.93;;
76900;SDS011;65859;43.020;25.096;2023-04-03T06:28:14;21.13;;;10.55;;
76900;SDS011;65859;43.020;25.096;2023-04-03T06:30:40;18.58;;;10.93;;
76900;SDS011;65859;43.020;25.096;2023-04-03T06:33:07;31.88;;;15.57;;
76900;SDS011;65859;43.020;25.096;2023-04-03T06:35:33;33.17;;;16.10;;
76900;SDS011;65859;43.020;25.096;2023-04-03T06:38:00;32.28;;;12.68;;
76900;SDS011;65859;43.020;25.096;2023-04-03T06:40:26;24.25;;;10.40;;
76900;SDS011;65859;43.020;25.096;2023-04-03T06:42:53;22.50;;;10.52;;
76900;SDS011;65859;43.020;25.096;2023-04-03T06:45:19;14.75;;;10.80;;
76900;SDS011;65859;43.020;25.096;2023-04-03T06:47:48;18.08;;;10.45;;
76900;SDS011;65859;43.020;25.096;2023-04-03T06:50:14;19.10;;;9.85;;
76900;SDS011;65859;43.020;25.096;2023-04-03T06:52:40;19.55;;;9.00;;
76900;SDS011;65859;43.020;25.096;2023-04-03T06:55:07;14.93;;;9.13;;
76900;SDS011;65859;43.020;25.096;2023-04-03T06:57:34;14.77;;;9.13;;
76900;SDS011;65859;43.020;25.096;2023-04-03T07:00:01;18.50;;;8.27;;
76900;SDS011;65859;43.020;25.096;2023-04-03T07:02:29;14.82;;;8.13;;
76900;SDS011;65859;43.020;25.096;2023-04-03T07:04:55;11.93;;;8.35;;
76900;SDS011;65859;43.020;25.096;2023-04-03T07:07:22;17.52;;;7.28;;
76900;SDS011;65859;43.020;25.096;2023-04-03T07:09:48;12.43;;;7.00;;
76900;SDS011;65859;43.020;25.096;2023-04-03T07:12:14;10.43;;;6.15;;
76900;SDS011;65859;43.020;25.096;2023-04-03T07:14:41;17.15;;;8.45;;
76900;SDS011;65859;43.020;25.096;2023-04-03T07:17:08;14.70;;;6.63;;
76900;SDS011;65859;43.020;25.096;2023-04-03T07:19:36;16.13;;;6.68;;
76900;SDS011;65859;43.020;25.096;2023-04-03T07:22:02;12.00;;;6.50;;
76900;SDS011;65859;43.020;25.096;2023-04-03T07:24:29;15.82;;;8.80;;
76900;SDS011;65859;43.020;25.096;2023-04-03T07:26:55;14.10;;;8.07;;
76900;SDS011;65859;43.020;25.096;2023-04-03T07:29:22;13.75;;;7.35;;
76900;SDS011;65859;43.020;25.096;2023-04-03T07:31:49;21.80;;;9.35;;
76900;SDS011;65859;43.020;25.096;2023-04-03T07:34:15;19.83;;;10.52;;
76900;SDS011;65859;43.020;25.096;2023-04-03T07:36:41;11.25;;;7.75;;
76900;SDS011;65859;43.020;25.096;2023-04-03T07:39:08;13.15;;;7.47;;
76900;SDS011;65859;43.020;25.096;2023-04-03T07:41:35;12.90;;;8.75;;
76900;SDS011;65859;43.020;25.096;2023-04-03T07:44:01;13.38;;;8.00;;
76900;SDS011;65859;43.020;25.096;2023-04-03T07:46:27;15.32;;;7.28;;
76900;SDS011;65859;43.020;25.096;2023-04-03T07:48:54;17.80;;;8.63;;
76900;SDS011;65859;43.020;25.096;2023-04-03T07:51:21;9.38;;;3.75;;
76900;SDS011;65859;43.020;25.096;2023-04-03T07:53:49;3.10;;;2.35;;
76900;SDS011;65859;43.020;25.096;2023-04-03T07:56:16;4.30;;;2.78;;
76900;SDS011;65859;43.020;25.096;2023-04-03T07:58:42;3.97;;;2.88;;
76900;SDS011;65859;43.020;25.096;2023-04-03T08:01:09;4.90;;;4.05;;
76900;SDS011;65859;43.020;25.096;2023-04-03T08:03:35;7.85;;;4.97;;
76900;SDS011;65859;43.020;25.096;2023-04-03T08:06:03;11.43;;;5.55;;
76900;SDS011;65859;43.020;25.096;2023-04-03T08:08:31;12.20;;;6.93;;
76900;SDS011;65859;43.020;25.096;2023-04-03T08:10:59;20.70;;;12.93;;
76900;SDS011;65859;43.020;25.096;2023-04-03T08:13:27;22.73;;;10.63;;
76900;SDS011;65859;43.020;25.096;2023-04-03T08:15:55;15.35;;;10.20;;
76900;SDS011;65859;43.020;25.096;2023-04-03T08:18:23;25.40;;;11.27;;
76900;SDS011;65859;43.020;25.096;2023-04-03T08:20:51;18.17;;;11.82;;
76900;SDS011;65859;43.020;25.096;2023-04-03T08:23:18;16.48;;;10.52;;
76900;SDS011;65859;43.020;25.096;2023-04-03T08:25:45;22.63;;;14.98;;
76900;SDS011;65859;43.020;25.096;2023-04-03T08:28:11;13.35;;;8.98;;
76900;SDS011;65859;43.020;25.096;2023-04-03T08:30:39;11.15;;;4.93;;
76900;SDS011;65859;43.020;25.096;2023-04-03T08:33:07;7.93;;;5.93;;
76900;SDS011;65859;43.020;25.096;2023-04-03T08:35:38;6.47;;;5.05;;
76900;SDS011;65859;43.020;25.096;2023-04-03T08:38:05;7.40;;;4.55;;
76900;SDS011;65859;43.020;25.096;2023-04-03T08:40:32;5.45;;;3.60;;
76900;SDS011;65859;43.020;25.096;2023-04-03T08:50:52;11.93;;;6.65;;
76900;SDS011;65859;43.020;25.096;2023-04-03T08:53:25;116.80;;;86.10;;
76900;SDS011;65859;43.020;25.096;2023-04-03T08:55:56;142.27;;;99.65;;
76900;SDS011;65859;43.020;25.096;2023-04-03T08:58:30;23.77;;;14.82;;
76900;SDS011;65859;43.020;25.096;2023-04-03T09:01:05;17.77;;;13.00;;
76900;SDS011;65859;43.020;25.096;2023-04-03T09:04:00;12.07;;;7.40;;
76900;SDS011;65859;43.020;25.096;2023-04-03T09:06:29;13.15;;;9.23;;
76900;SDS011;65859;43.020;25.096;2023-04-03T09:12:22;15.70;;;12.15;;
76900;SDS011;65859;43.020;25.096;2023-04-03T09:23:19;3.35;;;2.17;;
76900;SDS011;65859;43.020;25.096;2023-04-03T09:26:01;1.92;;;1.52;;
76900;SDS011;65859;43.020;25.096;2023-04-03T09:28:32;3.33;;;2.10;;
76900;SDS011;65859;43.020;25.096;2023-04-03T09:31:05;3.88;;;1.50;;
76900;SDS011;65859;43.020;25.096;2023-04-03T09:33:51;10.65;;;6.68;;
76900;SDS011;65859;43.020;25.096;2023-04-03T09:36:41;6.65;;;4.47;;
76900;SDS011;65859;43.020;25.096;2023-04-03T09:39:13;5.05;;;3.35;;
76900;SDS011;65859;43.020;25.096;2023-04-03T09:41:40;2.88;;;1.80;;
76900;SDS011;65859;43.020;25.096;2023-04-03T09:44:20;8.10;;;5.35;;
76900;SDS011;65859;43.020;25.096;2023-04-03T09:46:49;6.00;;;2.83;;
76900;SDS011;65859;43.020;25.096;2023-04-03T09:49:15;3.83;;;1.25;;
76900;SDS011;65859;43.020;25.096;2023-04-03T09:51:43;0.90;;;0.80;;
76900;SDS011;65859;43.020;25.096;2023-04-03T09:57:09;14.60;;;1.52;;
76900;SDS011;65859;43.020;25.096;2023-04-03T09:59:57;8.65;;;1.25;;
76900;SDS011;65859;43.020;25.096;2023-04-03T10:05:02;2.85;;;0.98;;
76900;SDS011;65859;43.020;25.096;2023-04-03T10:07:49;2.97;;;0.80;;
76900;SDS011;65859;43.020;25.096;2023-04-03T10:10:19;1.77;;;0.90;;
76900;SDS011;65859;43.020;25.096;2023-04-03T10:12:53;0.68;;;0.68;;
76900;SDS011;65859;43.020;25.096;2023-04-03T10:16:11;4.72;;;1.17;;
76900;SDS011;65859;43.020;25.096;2023-04-03T10:21:20;1.27;;;0.75;;
76900;SDS011;65859;43.020;25.096;2023-04-03T10:24:06;3.53;;;0.82;;
76900;SDS011;65859;43.020;25.096;2023-04-03T10:34:44;20.27;;;13.13;;
76900;SDS011;65859;43.020;25.096;2023-04-03T10:42:43;2.60;;;2.10;;
76900;SDS011;65859;43.020;25.096;2023-04-03T10:45:23;3.00;;;2.33;;
76900;SDS011;65859;43.020;25.096;2023-04-03T10:48:16;2.58;;;1.83;;
76900;SDS011;65859;43.020;25.096;2023-04-03T10:51:46;19.92;;;9.77;;
76900;SDS011;65859;43.020;25.096;2023-04-03T10:54:15;3.63;;;2.70;;
76900;SDS011;65859;43.020;25.096;2023-04-03T10:56:44;2.90;;;1.45;;
76900;SDS011;65859;43.020;25.096;2023-04-03T11:01:45;7.93;;;3.28;;
76900;SDS011;65859;43.020;25.096;2023-04-03T11:04:17;6.35;;;4.28;;
76900;SDS011;65859;43.020;25.096;2023-04-03T11:06:49;5.00;;;2.50;;
76900;SDS011;65859;43.020;25.096;2023-04-03T11:09:32;3.58;;;1.70;;
76900;SDS011;65859;43.020;25.096;2023-04-03T11:12:24;1.30;;;1.20;;
76900;SDS011;65859;43.020;25.096;2023-04-03T11:15:11;1.85;;;1.52;;
76900;SDS011;65859;43.020;25.096;2023-04-03T11:17:43;2.10;;;1.48;;
76900;SDS011;65859;43.020;25.096;2023-04-03T11:25:52;4.28;;;1.30;;
76900;SDS011;65859;43.020;25.096;2023-04-03T11:28:23;1.52;;;1.20;;
76900;SDS011;65859;43.020;25.096;2023-04-03T11:33:44;3.97;;;0.90;;
76900;SDS011;65859;43.020;25.096;2023-04-03T11:36:29;1.35;;;1.25;;
76900;SDS011;65859;43.020;25.096;2023-04-03T11:39:04;4.53;;;1.17;;
76900;SDS011;65859;43.020;25.096;2023-04-03T11:41:51;3.42;;;1.10;;
76900;SDS011;65859;43.020;25.096;2023-04-03T11:46:52;2.65;;;1.30;;
76900;SDS011;65859;43.020;25.096;2023-04-03T12:05:53;2.40;;;1.80;;
76900;SDS011;65859;43.020;25.096;2023-04-03T12:16:23;3.88;;;2.50;;
76900;SDS011;65859;43.020;25.096;2023-04-03T12:21:23;2.20;;;1.73;;
76900;SDS011;65859;43.020;25.096;2023-04-03T12:46:26;4.30;;;2.20;;
76900;SDS011;65859;43.020;25.096;2023-04-03T12:51:57;2.22;;;1.55;;
76900;SDS011;65859;43.020;25.096;2023-04-03T12:54:38;3.35;;;2.40;;
76900;SDS011;65859;43.020;25.096;2023-04-03T12:57:09;4.40;;;2.72;;
76900;SDS011;65859;43.020;25.096;2023-04-03T12:59:42;5.53;;;3.33;;
76900;SDS011;65859;43.020;25.096;2023-04-03T13:04:48;8.90;;;5.55;;
76900;SDS011;65859;43.020;25.096;2023-04-03T13:07:25;7.88;;;5.13;;
76900;SDS011;65859;43.020;25.096;2023-04-03T13:09:56;8.15;;;6.43;;
76900;SDS011;65859;43.020;25.096;2023-04-03T13:12:24;6.63;;;4.00;;
76900;SDS011;65859;43.020;25.096;2023-04-03T13:14:55;10.30;;;6.18;;
76900;SDS011;65859;43.020;25.096;2023-04-03T13:17:24;10.10;;;5.82;;
76900;SDS011;65859;43.020;25.096;2023-04-03T13:19:53;9.27;;;6.57;;
76900;SDS011;65859;43.020;25.096;2023-04-03T13:22:36;10.90;;;8.80;;
76900;SDS011;65859;43.020;25.096;2023-04-03T13:25:25;6.15;;;5.40;;
76900;SDS011;65859;43.020;25.096;2023-04-03T13:27:54;6.07;;;4.40;;
76900;SDS011;65859;43.020;25.096;2023-04-03T13:30:32;6.45;;;4.57;;
76900;SDS011;65859;43.020;25.096;2023-04-03T13:33:02;5.82;;;3.70;;
76900;SDS011;65859;43.020;25.096;2023-04-03T13:35:39;5.85;;;4.80;;
76900;SDS011;65859;43.020;25.096;2023-04-03T13:38:19;9.77;;;7.43;;
76900;SDS011;65859;43.020;25.096;2023-04-03T13:40:51;13.50;;;8.25;;
76900;SDS011;65859;43.020;25.096;2023-04-03T13:43:21;33.55;;;25.65;;
76900;SDS011;65859;43.020;25.096;2023-04-03T13:45:58;29.35;;;19.83;;
76900;SDS011;65859;43.020;25.096;2023-04-03T13:48:38;41.67;;;28.17;;
76900;SDS011;65859;43.020;25.096;2023-04-03T13:54:21;30.33;;;22.05;;
76900;SDS011;65859;43.020;25.096;2023-04-03T13:56:38;29.83;;;20.85;;
76900;SDS011;65859;43.020;25.096;2023-04-03T14:01:49;15.90;;;11.18;;
76900;SDS011;65859;43.020;25.096;2023-04-03T14:04:31;10.98;;;7.63;;
76900;SDS011;65859;43.020;25.096;2023-04-03T14:07:13;8.05;;;5.82;;
76900;SDS011;65859;43.020;25.096;2023-04-03T14:09:41;8.90;;;7.32;;
76900;SDS011;65859;43.020;25.096;2023-04-03T14:12:14;8.65;;;7.00;;
76900;SDS011;65859;43.020;25.096;2023-04-03T14:14:46;8.75;;;5.90;;
76900;SDS011;65859;43.020;25.096;2023-04-03T14:17:14;11.73;;;6.63;;
76900;SDS011;65859;43.020;25.096;2023-04-03T14:19:44;15.38;;;9.52;;
76900;SDS011;65859;43.020;25.096;2023-04-03T14:22:27;10.07;;;6.90;;
76900;SDS011;65859;43.020;25.096;2023-04-03T14:24:57;6.07;;;5.03;;
76900;SDS011;65859;43.020;25.096;2023-04-03T14:27:25;6.68;;;5.97;;
76900;SDS011;65859;43.020;25.096;2023-04-03T14:30:01;9.23;;;6.70;;
76900;SDS011;65859;43.020;25.096;2023-04-03T14:32:29;9.18;;;7.80;;
76900;SDS011;65859;43.020;25.096;2023-04-03T14:34:55;14.50;;;9.93;;
76900;SDS011;65859;43.020;25.096;2023-04-03T14:37:24;23.17;;;14.80;;
76900;SDS011;65859;43.020;25.096;2023-04-03T14:39:54;23.42;;;15.85;;
76900;SDS011;65859;43.020;25.096;2023-04-03T14:42:24;23.08;;;17.35;;
76900;SDS011;65859;43.020;25.096;2023-04-03T14:44:53;21.75;;;16.77;;
76900;SDS011;65859;43.020;25.096;2023-04-03T14:47:21;14.90;;;10.65;;
76900;SDS011;65859;43.020;25.096;2023-04-03T14:49:51;18.48;;;12.57;;
76900;SDS011;65859;43.020;25.096;2023-04-03T14:54:52;42.00;;;29.83;;
76900;SDS011;65859;43.020;25.096;2023-04-03T14:57:20;38.50;;;27.08;;
76900;SDS011;65859;43.020;25.096;2023-04-03T14:59:52;30.15;;;23.65;;
76900;SDS011;65859;43.020;25.096;2023-04-03T15:02:26;16.67;;;12.20;;
76900;SDS011;65859;43.020;25.096;2023-04-03T15:04:57;16.58;;;13.25;;
76900;SDS011;65859;43.020;25.096;2023-04-03T15:07:26;13.55;;;11.38;;
76900;SDS011;65859;43.020;25.096;2023-04-03T15:09:55;22.27;;;16.13;;
76900;SDS011;65859;43.020;25.096;2023-04-03T15:12:24;22.40;;;17.45;;
76900;SDS011;65859;43.020;25.096;2023-04-03T15:14:52;21.10;;;14.75;;
76900;SDS011;65859;43.020;25.096;2023-04-03T15:17:20;20.13;;;13.90;;
76900;SDS011;65859;43.020;25.096;2023-04-03T15:19:47;19.70;;;14.20;;
76900;SDS011;65859;43.020;25.096;2023-04-03T15:22:15;25.38;;;17.77;;
76900;SDS011;65859;43.020;25.096;2023-04-03T15:24:44;16.95;;;11.77;;
76900;SDS011;65859;43.020;25.096;2023-04-03T15:27:10;12.13;;;9.13;;
76900;SDS011;65859;43.020;25.096;2023-04-03T15:29:38;9.95;;;7.38;;
76900;SDS011;65859;43.020;25.096;2023-04-03T15:32:06;19.95;;;12.75;;
76900;SDS011;65859;43.020;25.096;2023-04-03T15:34:32;28.40;;;20.58;;
76900;SDS011;65859;43.020;25.096;2023-04-03T15:36:59;34.38;;;24.08;;
76900;SDS011;65859;43.020;25.096;2023-04-03T15:39:26;34.17;;;24.30;;
76900;SDS011;65859;43.020;25.096;2023-04-03T15:41:53;48.67;;;35.22;;
76900;SDS011;65859;43.020;25.096;2023-04-03T15:44:20;32.47;;;24.05;;
76900;SDS011;65859;43.020;25.096;2023-04-03T15:46:48;42.63;;;31.60;;
76900;SDS011;65859;43.020;25.096;2023-04-03T15:49:16;45.75;;;33.00;;
76900;SDS011;65859;43.020;25.096;2023-04-03T15:51:45;41.30;;;27.55;;
76900;SDS011;65859;43.020;25.096;2023-04-03T15:54:12;37.40;;;27.52;;
76900;SDS011;65859;43.020;25.096;2023-04-03T15:56:38;19.60;;;16.75;;
76900;SDS011;65859;43.020;25.096;2023-04-03T15:59:05;25.08;;;19.35;;
76900;SDS011;65859;43.020;25.096;2023-04-03T16:01:31;11.15;;;9.15;;
76900;SDS011;65859;43.020;25.096;2023-04-03T16:03:57;9.30;;;7.10;;
76900;SDS011;65859;43.020;25.096;2023-04-03T16:06:24;10.55;;;8.55;;
76900;SDS011;65859;43.020;25.096;2023-04-03T16:08:51;9.25;;;7.20;;
76900;SDS011;65859;43.020;25.096;2023-04-03T16:11:22;10.18;;;7.30;;
76900;SDS011;65859;43.020;25.096;2023-04-03T16:13:49;10.82;;;7.50;;
76900;SDS011;65859;43.020;25.096;2023-04-03T16:16:16;11.95;;;9.15;;
76900;SDS011;65859;43.020;25.096;2023-04-03T16:18:43;9.48;;;7.80;;
76900;SDS011;65859;43.020;25.096;2023-04-03T16:21:12;15.77;;;10.32;;
76900;SDS011;65859;43.020;25.096;2023-04-03T16:23:39;12.00;;;8.55;;
76900;SDS011;65859;43.020;25.096;2023-04-03T16:26:06;10.32;;;7.93;;
76900;SDS011;65859;43.020;25.096;2023-04-03T16:28:32;15.65;;;10.32;;
76900;SDS011;65859;43.020;25.096;2023-04-03T16:30:59;17.63;;;12.75;;
76900;SDS011;65859;43.020;25.096;2023-04-03T16:33:26;23.25;;;13.05;;
76900;SDS011;65859;43.020;25.096;2023-04-03T16:35:54;14.80;;;7.82;;
76900;SDS011;65859;43.020;25.096;2023-04-03T16:38:20;306.02;;;68.32;;
76900;SDS011;65859;43.020;25.096;2023-04-03T16:40:47;82.88;;;35.58;;
76900;SDS011;65859;43.020;25.096;2023-04-03T16:43:14;73.97;;;48.53;;